createdAt,value
2019-02-28T00:04:11.759Z,0.00
2019-02-28T00:08:11.717Z,0.00
2019-02-28T00:09:11.705Z,0.00
2019-02-28T00:23:12.220Z,0.00
2019-02-28T00:56:11.297Z,0.00
2019-02-28T01:15:11.018Z,0.00
2019-02-28T01:22:12.736Z,0.00
2019-02-28T01:26:11.727Z,0.00
2019-02-28T01:27:11.451Z,0.00
2019-02-28T01:30:11.052Z,0.00
2019-02-28T01:31:11.673Z,0.00
2019-02-28T01:32:15.282Z,0.00
2019-02-28T01:34:10.862Z,0.00
2019-02-28T01:35:10.888Z,0.00
2019-02-28T01:36:12.299Z,0.00
2019-02-28T01:37:10.862Z,0.00
2019-02-28T01:38:10.853Z,0.00
2019-02-28T01:39:10.843Z,0.00
2019-02-28T01:40:10.832Z,0.00
2019-02-28T01:41:11.164Z,0.00
2019-02-28T01:42:10.813Z,0.00
2019-02-28T01:43:10.802Z,0.00
2019-02-28T01:44:10.791Z,0.00
2019-02-28T01:45:10.995Z,0.00
2019-02-28T01:46:10.765Z,0.00
2019-02-28T01:47:10.759Z,0.00
2019-02-28T01:48:10.800Z,0.00
2019-02-28T01:49:10.740Z,0.00
2019-02-28T01:50:10.731Z,0.00
2019-02-28T01:51:10.624Z,0.00
2019-02-28T01:52:10.825Z,0.00
2019-02-28T01:53:10.699Z,0.00
2019-02-28T01:54:10.691Z,0.00
2019-02-28T01:55:10.588Z,0.00
2019-02-28T01:56:10.667Z,0.00
2019-02-28T01:57:10.563Z,0.00
2019-02-28T01:58:10.638Z,0.00
2019-02-28T01:59:10.633Z,5.62
2019-02-28T02:00:10.621Z,5.62
2019-02-28T02:01:10.610Z,5.62
2019-02-28T02:02:10.607Z,5.62
2019-02-28T02:03:10.640Z,5.62
2019-02-28T02:04:12.537Z,5.62
2019-02-28T02:05:10.571Z,11.25
2019-02-28T02:06:10.559Z,11.25
2019-02-28T02:07:10.552Z,11.25
2019-02-28T02:08:10.539Z,16.87
2019-02-28T02:09:10.975Z,16.87
2019-02-28T02:10:10.517Z,22.50
2019-02-28T02:11:10.505Z,22.50
2019-02-28T02:12:10.491Z,28.12
2019-02-28T02:13:10.481Z,28.12
2019-02-28T02:14:10.995Z,33.75
2019-02-28T02:15:10.464Z,33.75
2019-02-28T02:16:10.451Z,45.00
2019-02-28T02:17:10.444Z,50.62
2019-02-28T02:18:10.431Z,50.62
2019-02-28T02:19:10.418Z,56.25
2019-02-28T02:20:10.411Z,61.87
2019-02-28T02:21:10.401Z,50.62
2019-02-28T02:22:10.409Z,39.37
2019-02-28T02:23:10.375Z,39.37
2019-02-28T02:24:10.365Z,39.37
2019-02-28T02:25:10.358Z,39.37
2019-02-28T02:26:11.264Z,39.37
2019-02-28T02:27:10.335Z,45.00
2019-02-28T02:28:10.326Z,45.00
2019-02-28T02:29:10.312Z,45.00
2019-02-28T02:30:15.293Z,50.62
2019-02-28T02:31:10.296Z,50.62
2019-02-28T02:32:10.287Z,50.62
2019-02-28T02:33:14.310Z,56.25
2019-02-28T02:34:10.263Z,56.25
2019-02-28T02:35:10.255Z,56.25
2019-02-28T02:36:10.249Z,61.87
2019-02-28T02:37:10.238Z,61.87
2019-02-28T02:38:10.221Z,61.87
2019-02-28T02:39:16.448Z,67.50
2019-02-28T02:40:11.300Z,67.50
2019-02-28T02:41:10.189Z,67.50
2019-02-28T02:42:11.543Z,67.50
2019-02-28T02:43:10.171Z,73.12
2019-02-28T02:44:10.158Z,73.12
2019-02-28T02:45:10.144Z,78.75
2019-02-28T02:46:10.144Z,78.75
2019-02-28T02:47:10.126Z,78.75
2019-02-28T02:48:10.117Z,78.75
2019-02-28T02:49:10.106Z,78.75
2019-02-28T02:50:10.093Z,84.37
2019-02-28T02:51:11.023Z,84.37
2019-02-28T02:52:10.076Z,84.37
2019-02-28T02:53:10.059Z,90.00
2019-02-28T02:54:10.050Z,90.00
2019-02-28T02:55:10.046Z,90.00
2019-02-28T02:56:10.029Z,95.62
2019-02-28T02:57:14.055Z,95.62
2019-02-28T02:58:10.059Z,95.62
2019-02-28T02:59:09.999Z,101.25
2019-02-28T03:00:13.631Z,101.25
2019-02-28T03:01:09.976Z,101.25
2019-02-28T03:02:09.965Z,106.87
2019-02-28T03:03:09.952Z,106.87
2019-02-28T03:04:09.943Z,112.50
2019-02-28T03:05:09.935Z,112.50
2019-02-28T03:06:13.856Z,112.50
2019-02-28T03:07:09.913Z,118.12
2019-02-28T03:08:09.904Z,118.12
2019-02-28T03:09:11.070Z,123.75
2019-02-28T03:10:09.880Z,129.37
2019-02-28T03:11:09.882Z,135.00
2019-02-28T03:12:09.878Z,140.62
2019-02-28T03:13:09.863Z,146.25
2019-02-28T03:14:09.850Z,151.87
2019-02-28T03:15:09.846Z,157.50
2019-02-28T03:16:09.855Z,163.12
2019-02-28T03:17:11.830Z,168.75
2019-02-28T03:18:09.809Z,168.75
2019-02-28T03:19:09.802Z,174.37
2019-02-28T03:20:09.790Z,174.37
2019-02-28T03:21:09.775Z,168.75
2019-02-28T03:22:09.767Z,168.75
2019-02-28T03:23:09.754Z,163.12
2019-02-28T03:24:14.590Z,157.50
2019-02-28T03:25:10.839Z,157.50
2019-02-28T03:26:09.719Z,151.87
2019-02-28T03:27:09.710Z,151.87
2019-02-28T03:28:09.699Z,146.25
2019-02-28T03:29:09.697Z,140.62
2019-02-28T03:30:09.683Z,140.62
2019-02-28T03:31:14.462Z,140.62
2019-02-28T03:32:09.676Z,140.62
2019-02-28T03:33:23.385Z,146.25
2019-02-28T03:34:13.770Z,146.25
2019-02-28T03:35:09.626Z,146.25
2019-02-28T03:36:09.700Z,151.87
2019-02-28T03:37:09.604Z,151.87
2019-02-28T03:38:11.607Z,157.50
2019-02-28T03:39:09.579Z,157.50
2019-02-28T03:40:09.600Z,163.12
2019-02-28T03:41:16.362Z,168.75
2019-02-28T03:42:10.657Z,168.75
2019-02-28T03:43:09.539Z,174.37
2019-02-28T03:44:09.542Z,180.00
2019-02-28T03:45:09.517Z,185.62
2019-02-28T03:46:10.201Z,191.25
2019-02-28T03:47:09.510Z,196.87
2019-02-28T03:48:09.486Z,208.12
2019-02-28T03:49:11.731Z,219.37
2019-02-28T03:50:09.468Z,225.00
2019-02-28T03:51:09.453Z,236.25
2019-02-28T03:52:09.444Z,247.50
2019-02-28T03:53:09.430Z,264.37
2019-02-28T03:54:09.423Z,270.00
2019-02-28T03:55:09.414Z,281.25
2019-02-28T03:56:14.298Z,286.87
2019-02-28T03:57:10.492Z,292.50
2019-02-28T03:58:09.479Z,286.87
2019-02-28T03:59:09.467Z,281.25
2019-02-28T04:00:09.359Z,275.62
2019-02-28T04:01:10.304Z,275.62
2019-02-28T04:02:09.337Z,270.00
2019-02-28T04:03:09.326Z,270.00
2019-02-28T04:04:12.195Z,264.37
2019-02-28T04:05:09.304Z,258.75
2019-02-28T04:06:09.309Z,253.12
2019-02-28T04:07:15.385Z,247.50
2019-02-28T04:08:10.391Z,241.87
2019-02-28T04:09:09.278Z,241.87
2019-02-28T04:10:09.257Z,241.87
2019-02-28T04:11:09.245Z,236.25
2019-02-28T04:12:09.246Z,236.25
2019-02-28T04:13:09.222Z,236.25
2019-02-28T04:14:09.212Z,236.25
2019-02-28T04:15:10.158Z,236.25
2019-02-28T04:16:10.076Z,236.25
2019-02-28T04:17:09.195Z,241.87
2019-02-28T04:18:09.178Z,247.50
2019-02-28T04:19:09.160Z,247.50
2019-02-28T04:20:09.155Z,247.50
2019-02-28T04:21:10.304Z,253.12
2019-02-28T04:22:09.128Z,264.37
2019-02-28T04:23:09.119Z,264.37
2019-02-28T04:24:13.867Z,270.00
2019-02-28T04:25:09.098Z,275.62
2019-02-28T04:26:09.105Z,275.62
2019-02-28T04:27:09.088Z,281.25
2019-02-28T04:28:09.072Z,281.25
2019-02-28T04:29:08.964Z,286.87
2019-02-28T04:30:09.049Z,292.50
2019-02-28T04:31:09.047Z,292.50
2019-02-28T04:32:08.934Z,292.50
2019-02-28T04:33:09.017Z,292.50
2019-02-28T04:34:12.939Z,292.50
2019-02-28T04:35:08.903Z,292.50
2019-02-28T04:36:08.894Z,292.50
2019-02-28T04:37:09.729Z,292.50
2019-02-28T04:38:08.965Z,292.50
2019-02-28T04:39:08.859Z,292.50
2019-02-28T04:40:08.849Z,298.12
2019-02-28T04:41:08.840Z,303.75
2019-02-28T04:42:08.925Z,303.75
2019-02-28T04:43:10.065Z,292.50
2019-02-28T04:44:08.902Z,286.87
2019-02-28T04:45:08.890Z,275.62
2019-02-28T04:46:08.790Z,270.00
2019-02-28T04:47:08.779Z,270.00
2019-02-28T04:48:13.637Z,270.00
2019-02-28T04:49:08.850Z,270.00
2019-02-28T04:50:08.750Z,275.62
2019-02-28T04:51:08.736Z,275.62
2019-02-28T04:52:11.727Z,281.25
2019-02-28T04:53:08.717Z,281.25
2019-02-28T04:54:08.703Z,281.25
2019-02-28T04:55:08.692Z,275.62
2019-02-28T04:56:11.579Z,270.00
2019-02-28T04:57:08.674Z,264.37
2019-02-28T04:58:08.729Z,258.75
2019-02-28T04:59:09.147Z,253.12
2019-02-28T05:00:08.737Z,253.12
2019-02-28T05:01:09.250Z,253.12
2019-02-28T05:02:08.718Z,258.75
2019-02-28T05:03:08.613Z,264.37
2019-02-28T05:04:08.695Z,275.62
2019-02-28T05:05:12.164Z,281.25
2019-02-28T05:06:08.584Z,292.50
2019-02-28T05:07:08.572Z,303.75
2019-02-28T05:08:08.560Z,303.75
2019-02-28T05:09:10.740Z,309.37
2019-02-28T05:10:08.632Z,315.00
2019-02-28T05:11:08.644Z,315.00
2019-02-28T05:12:08.614Z,320.62
2019-02-28T05:13:11.366Z,326.25
2019-02-28T05:14:08.498Z,326.25
2019-02-28T05:15:08.583Z,331.87
2019-02-28T05:16:09.384Z,337.50
2019-02-28T05:17:08.569Z,343.12
2019-02-28T05:18:08.555Z,348.75
2019-02-28T05:19:08.540Z,348.75
2019-02-28T05:20:10.810Z,360.00
2019-02-28T05:21:08.519Z,365.62
2019-02-28T05:22:08.510Z,371.25
2019-02-28T05:23:08.502Z,371.25
2019-02-28T05:24:08.666Z,371.25
2019-02-28T05:25:08.384Z,376.87
2019-02-28T05:26:08.471Z,376.87
2019-02-28T05:27:08.462Z,376.87
2019-02-28T05:28:08.449Z,376.87
2019-02-28T05:29:11.860Z,371.25
2019-02-28T05:30:08.427Z,371.25
2019-02-28T05:31:08.718Z,371.25
2019-02-28T05:32:08.407Z,365.62
2019-02-28T05:33:08.400Z,365.62
2019-02-28T05:34:08.388Z,360.00
2019-02-28T05:35:08.379Z,365.62
2019-02-28T05:36:08.372Z,365.62
2019-02-28T05:37:12.137Z,360.00
2019-02-28T05:38:08.351Z,360.00
2019-02-28T05:39:08.337Z,360.00
2019-02-28T05:40:08.328Z,360.00
2019-02-28T05:41:08.321Z,360.00
2019-02-28T05:42:08.306Z,360.00
2019-02-28T05:43:08.297Z,360.00
2019-02-28T05:44:08.286Z,360.00
2019-02-28T05:45:08.272Z,360.00
2019-02-28T05:46:08.368Z,360.00
2019-02-28T05:47:08.250Z,360.00
2019-02-28T05:48:08.245Z,360.00
2019-02-28T05:49:08.995Z,360.00
2019-02-28T05:50:08.221Z,360.00
2019-02-28T05:51:08.216Z,360.00
2019-02-28T05:52:08.202Z,360.00
2019-02-28T05:53:09.309Z,360.00
2019-02-28T05:54:08.179Z,360.00
2019-02-28T05:55:08.168Z,360.00
2019-02-28T05:56:08.155Z,360.00
2019-02-28T05:57:08.914Z,360.00
2019-02-28T05:58:08.134Z,360.00
2019-02-28T05:59:08.129Z,360.00
2019-02-28T06:00:08.360Z,360.00
2019-02-28T06:01:08.788Z,360.00
2019-02-28T06:02:08.096Z,360.00
2019-02-28T06:03:08.081Z,360.00
2019-02-28T06:04:08.070Z,354.37
2019-02-28T06:05:11.661Z,354.37
2019-02-28T06:06:08.146Z,348.75
2019-02-28T06:07:09.363Z,343.12
2019-02-28T06:08:08.024Z,343.12
2019-02-28T06:09:10.407Z,337.50
2019-02-28T06:10:08.008Z,337.50
2019-02-28T06:11:07.998Z,337.50
2019-02-28T06:12:09.545Z,337.50
2019-02-28T06:13:07.973Z,343.12
2019-02-28T06:14:07.959Z,343.12
2019-02-28T06:15:07.949Z,343.12
2019-02-28T06:16:11.301Z,343.12
2019-02-28T06:17:07.931Z,343.12
2019-02-28T06:18:07.921Z,343.12
2019-02-28T06:19:08.370Z,343.12
2019-02-28T06:20:07.895Z,343.12
2019-02-28T06:21:10.008Z,343.12
2019-02-28T06:22:07.873Z,343.12
2019-02-28T06:23:09.353Z,343.12
2019-02-28T06:24:07.850Z,343.12
2019-02-28T06:25:07.844Z,343.12
2019-02-28T06:26:07.838Z,348.75
2019-02-28T06:27:07.822Z,354.37
2019-02-28T06:28:07.809Z,360.00
2019-02-28T06:29:07.799Z,365.62
2019-02-28T06:30:08.754Z,371.25
2019-02-28T06:31:07.780Z,371.25
2019-02-28T06:32:07.767Z,371.25
2019-02-28T06:33:07.758Z,371.25
2019-02-28T06:34:08.530Z,365.62
2019-02-28T06:35:07.734Z,365.62
2019-02-28T06:36:07.719Z,371.25
2019-02-28T06:37:07.709Z,376.87
2019-02-28T06:38:07.701Z,382.50
2019-02-28T06:39:07.690Z,388.12
2019-02-28T06:40:07.682Z,393.75
2019-02-28T06:41:08.679Z,393.75
2019-02-28T06:42:07.655Z,393.75
2019-02-28T06:43:07.647Z,388.12
2019-02-28T06:44:07.633Z,388.12
2019-02-28T06:45:07.625Z,382.50
2019-02-28T06:46:08.553Z,382.50
2019-02-28T06:47:07.602Z,382.50
2019-02-28T06:48:07.588Z,382.50
2019-02-28T06:49:07.580Z,376.87
2019-02-28T06:50:07.571Z,371.25
2019-02-28T06:51:07.556Z,371.25
2019-02-28T06:52:07.549Z,371.25
2019-02-28T06:53:07.536Z,365.62
2019-02-28T06:54:07.795Z,365.62
2019-02-28T06:55:07.513Z,365.62
2019-02-28T06:56:07.504Z,365.62
2019-02-28T06:57:07.500Z,365.62
2019-02-28T06:58:07.480Z,365.62
2019-02-28T06:59:07.467Z,376.87
2019-02-28T07:00:10.350Z,388.12
2019-02-28T07:01:07.548Z,399.37
2019-02-28T07:02:08.931Z,416.25
2019-02-28T07:03:07.428Z,421.87
2019-02-28T07:04:07.418Z,427.50
2019-02-28T07:05:07.405Z,433.12
2019-02-28T07:06:07.395Z,427.50
2019-02-28T07:07:09.985Z,421.87
2019-02-28T07:08:07.374Z,410.62
2019-02-28T07:09:07.464Z,405.00
2019-02-28T07:10:09.663Z,393.75
2019-02-28T07:11:07.287Z,388.12
2019-02-28T07:12:07.334Z,376.87
2019-02-28T07:13:07.321Z,371.25
2019-02-28T07:14:12.679Z,365.62
2019-02-28T07:15:07.299Z,365.62
2019-02-28T07:16:07.295Z,360.00
2019-02-28T07:17:07.775Z,365.62
2019-02-28T07:18:07.265Z,371.25
2019-02-28T07:19:07.256Z,376.87
2019-02-28T07:20:07.243Z,382.50
2019-02-28T07:21:07.863Z,388.12
2019-02-28T07:22:07.223Z,393.75
2019-02-28T07:23:07.218Z,382.50
2019-02-28T07:24:07.203Z,376.87
2019-02-28T07:25:09.404Z,365.62
2019-02-28T07:26:07.148Z,365.62
2019-02-28T07:27:07.173Z,365.62
2019-02-28T07:28:07.160Z,360.00
2019-02-28T07:29:11.101Z,360.00
2019-02-28T07:30:07.140Z,360.00
2019-02-28T07:31:07.131Z,354.37
2019-02-28T07:32:07.118Z,348.75
2019-02-28T07:33:10.626Z,348.75
2019-02-28T07:34:07.097Z,348.75
2019-02-28T07:35:07.090Z,348.75
2019-02-28T07:36:09.463Z,354.37
2019-02-28T07:37:07.066Z,354.37
2019-02-28T07:38:07.054Z,348.75
2019-02-28T07:39:07.046Z,343.12
2019-02-28T07:40:07.041Z,343.12
2019-02-28T07:41:07.022Z,337.50
2019-02-28T07:42:07.016Z,337.50
2019-02-28T07:43:12.141Z,337.50
2019-02-28T07:44:08.094Z,337.50
2019-02-28T07:45:07.285Z,337.50
2019-02-28T07:46:07.731Z,337.50
2019-02-28T07:47:06.961Z,337.50
2019-02-28T07:48:06.953Z,337.50
2019-02-28T07:49:06.944Z,337.50
2019-02-28T07:50:07.732Z,331.87
2019-02-28T07:51:06.924Z,326.25
2019-02-28T07:52:07.215Z,320.62
2019-02-28T07:53:08.883Z,320.62
2019-02-28T07:54:06.891Z,315.00
2019-02-28T07:55:07.183Z,309.37
2019-02-28T07:56:07.767Z,303.75
2019-02-28T07:57:06.859Z,303.75
2019-02-28T07:58:06.849Z,298.12
2019-02-28T07:59:06.841Z,298.12
2019-02-28T08:00:06.833Z,298.12
2019-02-28T08:01:06.821Z,292.50
2019-02-28T08:02:07.210Z,292.50
2019-02-28T08:03:06.795Z,292.50
2019-02-28T08:04:06.782Z,292.50
2019-02-28T08:05:06.775Z,292.50
2019-02-28T08:06:06.765Z,292.50
2019-02-28T08:07:06.760Z,292.50
2019-02-28T08:08:06.745Z,292.50
2019-02-28T08:09:06.735Z,292.50
2019-02-28T08:10:06.724Z,298.12
2019-02-28T08:11:06.710Z,298.12
2019-02-28T08:12:06.703Z,303.75
2019-02-28T08:13:06.694Z,309.37
2019-02-28T08:14:09.169Z,309.37
2019-02-28T08:15:06.651Z,315.00
2019-02-28T08:16:06.662Z,315.00
2019-02-28T08:17:09.098Z,315.00
2019-02-28T08:18:06.644Z,315.00
2019-02-28T08:19:06.632Z,315.00
2019-02-28T08:20:06.617Z,315.00
2019-02-28T08:21:08.729Z,315.00
2019-02-28T08:22:06.598Z,309.37
2019-02-28T08:23:06.587Z,309.37
2019-02-28T08:24:06.582Z,309.37
2019-02-28T08:25:07.759Z,309.37
2019-02-28T08:26:06.555Z,309.37
2019-02-28T08:27:06.556Z,309.37
2019-02-28T08:28:06.533Z,309.37
2019-02-28T08:29:07.921Z,309.37
2019-02-28T08:30:06.513Z,309.37
2019-02-28T08:31:06.510Z,303.75
2019-02-28T08:32:07.964Z,303.75
2019-02-28T08:33:06.486Z,303.75
2019-02-28T08:34:06.477Z,303.75
2019-02-28T08:35:06.462Z,298.12
2019-02-28T08:36:11.578Z,298.12
2019-02-28T08:37:07.543Z,292.50
2019-02-28T08:38:06.940Z,292.50
2019-02-28T08:39:08.871Z,292.50
2019-02-28T08:40:06.411Z,292.50
2019-02-28T08:41:06.702Z,298.12
2019-02-28T08:42:06.393Z,298.12
2019-02-28T08:43:06.386Z,298.12
2019-02-28T08:44:06.367Z,303.75
2019-02-28T08:45:06.363Z,298.12
2019-02-28T08:46:09.775Z,298.12
2019-02-28T08:47:06.348Z,298.12
2019-02-28T08:48:06.329Z,298.12
2019-02-28T08:49:07.226Z,298.12
2019-02-28T08:50:06.317Z,292.50
2019-02-28T08:51:06.298Z,298.12
2019-02-28T08:52:06.715Z,298.12
2019-02-28T08:53:06.273Z,298.12
2019-02-28T08:54:06.264Z,303.75
2019-02-28T08:55:07.731Z,303.75
2019-02-28T08:56:06.242Z,309.37
2019-02-28T08:57:06.237Z,309.37
2019-02-28T08:58:06.760Z,309.37
2019-02-28T08:59:11.861Z,309.37
2019-02-28T09:00:07.410Z,303.75
2019-02-28T09:01:06.653Z,298.12
2019-02-28T09:02:06.180Z,292.50
2019-02-28T09:03:06.180Z,286.87
2019-02-28T09:04:06.165Z,281.25
2019-02-28T09:05:06.713Z,270.00
2019-02-28T09:06:07.430Z,264.37
2019-02-28T09:07:06.132Z,258.75
2019-02-28T09:08:06.120Z,253.12
2019-02-28T09:09:06.113Z,253.12
2019-02-28T09:10:06.389Z,247.50
2019-02-28T09:11:06.089Z,253.12
2019-02-28T09:12:06.080Z,253.12
2019-02-28T09:13:08.774Z,253.12
2019-02-28T09:14:06.057Z,253.12
2019-02-28T09:15:06.048Z,247.50
2019-02-28T09:16:06.040Z,241.87
2019-02-28T09:17:06.030Z,230.62
2019-02-28T09:18:07.329Z,225.00
2019-02-28T09:19:06.003Z,219.37
2019-02-28T09:20:07.423Z,213.75
2019-02-28T09:21:06.174Z,208.12
2019-02-28T09:22:05.980Z,202.50
2019-02-28T09:23:06.393Z,202.50
2019-02-28T09:24:05.952Z,196.87
2019-02-28T09:25:05.944Z,191.25
2019-02-28T09:26:05.940Z,191.25
2019-02-28T09:27:05.924Z,191.25
2019-02-28T09:28:05.916Z,191.25
2019-02-28T09:29:05.903Z,191.25
2019-02-28T09:30:05.892Z,191.25
2019-02-28T09:31:06.056Z,191.25
2019-02-28T09:32:05.871Z,196.87
2019-02-28T09:33:05.863Z,196.87
2019-02-28T09:34:05.859Z,191.25
2019-02-28T09:35:11.926Z,191.25
2019-02-28T09:36:06.944Z,185.62
2019-02-28T09:37:06.129Z,180.00
2019-02-28T09:38:08.876Z,180.00
2019-02-28T09:39:07.207Z,180.00
2019-02-28T09:40:05.792Z,174.37
2019-02-28T09:41:05.778Z,174.37
2019-02-28T09:42:05.835Z,180.00
2019-02-28T09:43:05.761Z,180.00
2019-02-28T09:44:07.075Z,180.00
2019-02-28T09:45:07.680Z,180.00
2019-02-28T09:46:05.729Z,180.00
2019-02-28T09:47:05.726Z,185.62
2019-02-28T09:48:05.707Z,185.62
2019-02-28T09:49:05.849Z,185.62
2019-02-28T09:50:05.688Z,185.62
2019-02-28T09:51:05.679Z,185.62
2019-02-28T09:52:06.305Z,185.62
2019-02-28T09:53:05.658Z,185.62
2019-02-28T09:54:05.648Z,180.00
2019-02-28T09:55:05.940Z,180.00
2019-02-28T09:56:08.894Z,180.00
2019-02-28T09:57:05.611Z,180.00
2019-02-28T09:58:05.703Z,174.37
2019-02-28T09:59:05.692Z,174.37
2019-02-28T10:00:05.583Z,168.75
2019-02-28T10:01:05.566Z,163.12
2019-02-28T10:02:08.472Z,163.12
2019-02-28T10:03:06.821Z,157.50
2019-02-28T10:04:05.725Z,151.87
2019-02-28T10:05:06.576Z,151.87
2019-02-28T10:06:05.707Z,146.25
2019-02-28T10:07:05.510Z,146.25
2019-02-28T10:08:07.063Z,146.25
2019-02-28T10:09:08.791Z,140.62
2019-02-28T10:10:05.475Z,140.62
2019-02-28T10:11:05.465Z,135.00
2019-02-28T10:12:07.827Z,135.00
2019-02-28T10:13:05.445Z,135.00
2019-02-28T10:14:05.436Z,135.00
2019-02-28T10:15:07.283Z,135.00
2019-02-28T10:16:05.601Z,129.37
2019-02-28T10:17:05.400Z,129.37
2019-02-28T10:18:05.417Z,129.37
2019-02-28T10:19:05.378Z,129.37
2019-02-28T10:20:05.371Z,129.37
2019-02-28T10:21:05.363Z,123.75
2019-02-28T10:22:05.335Z,123.75
2019-02-28T10:23:05.635Z,118.12
2019-02-28T10:24:05.326Z,118.12
2019-02-28T10:25:06.520Z,112.50
2019-02-28T10:26:05.311Z,106.87
2019-02-28T10:27:05.296Z,106.87
2019-02-28T10:28:05.582Z,101.25
2019-02-28T10:29:07.562Z,101.25
2019-02-28T10:30:05.257Z,101.25
2019-02-28T10:31:05.244Z,95.62
2019-02-28T10:32:06.133Z,95.62
2019-02-28T10:33:05.224Z,101.25
2019-02-28T10:34:05.217Z,101.25
2019-02-28T10:35:05.196Z,101.25
2019-02-28T10:36:05.189Z,95.62
2019-02-28T10:37:05.187Z,95.62
2019-02-28T10:38:05.165Z,95.62
2019-02-28T10:39:05.874Z,90.00
2019-02-28T10:40:05.197Z,90.00
2019-02-28T10:41:05.137Z,90.00
2019-02-28T10:42:06.097Z,90.00
2019-02-28T10:43:05.116Z,90.00
2019-02-28T10:44:05.102Z,90.00
2019-02-28T10:45:06.538Z,90.00
2019-02-28T10:46:05.082Z,84.37
2019-02-28T10:47:05.070Z,84.37
2019-02-28T10:48:05.060Z,84.37
2019-02-28T10:49:04.968Z,84.37
2019-02-28T10:50:05.044Z,84.37
2019-02-28T10:51:12.847Z,84.37
2019-02-28T10:52:06.127Z,84.37
2019-02-28T10:53:06.028Z,84.37
2019-02-28T10:54:05.000Z,78.75
2019-02-28T10:55:04.984Z,78.75
2019-02-28T10:56:05.163Z,78.75
2019-02-28T10:57:05.940Z,78.75
2019-02-28T10:58:05.147Z,78.75
2019-02-28T10:59:05.519Z,78.75
2019-02-28T11:00:05.245Z,78.75
2019-02-28T11:01:08.667Z,78.75
2019-02-28T11:02:04.914Z,78.75
2019-02-28T11:03:04.919Z,73.12
2019-02-28T11:04:07.434Z,73.12
2019-02-28T11:05:04.882Z,73.12
2019-02-28T11:06:04.874Z,73.12
2019-02-28T11:07:04.885Z,73.12
2019-02-28T11:08:04.852Z,73.12
2019-02-28T11:09:04.836Z,67.50
2019-02-28T11:10:04.828Z,67.50
2019-02-28T11:11:07.311Z,67.50
2019-02-28T11:12:04.808Z,67.50
2019-02-28T11:13:04.800Z,67.50
2019-02-28T11:14:05.012Z,67.50
2019-02-28T11:15:04.788Z,67.50
2019-02-28T11:16:04.772Z,67.50
2019-02-28T11:17:08.843Z,67.50
2019-02-28T11:18:09.752Z,67.50
2019-02-28T11:19:04.739Z,73.12
2019-02-28T11:20:04.731Z,73.12
2019-02-28T11:21:04.714Z,73.12
2019-02-28T11:22:05.740Z,73.12
2019-02-28T11:23:04.695Z,78.75
2019-02-28T11:24:04.690Z,78.75
2019-02-28T11:25:04.673Z,84.37
2019-02-28T11:26:06.405Z,90.00
2019-02-28T11:27:04.658Z,95.62
2019-02-28T11:28:04.645Z,95.62
2019-02-28T11:29:04.638Z,95.62
2019-02-28T11:30:07.381Z,95.62
2019-02-28T11:31:04.915Z,90.00
2019-02-28T11:32:04.604Z,84.37
2019-02-28T11:33:04.796Z,84.37
2019-02-28T11:34:04.578Z,78.75
2019-02-28T11:35:04.566Z,78.75
2019-02-28T11:36:04.557Z,73.12
2019-02-28T11:37:08.583Z,73.12
2019-02-28T11:38:05.063Z,73.12
2019-02-28T11:39:04.524Z,73.12
2019-02-28T11:40:05.489Z,73.12
2019-02-28T11:41:04.508Z,67.50
2019-02-28T11:42:04.506Z,67.50
2019-02-28T11:43:04.491Z,61.87
2019-02-28T11:44:04.474Z,61.87
2019-02-28T11:45:04.466Z,56.25
2019-02-28T11:46:04.459Z,56.25
2019-02-28T11:47:04.448Z,56.25
2019-02-28T11:48:04.436Z,50.62
2019-02-28T11:49:04.426Z,50.62
2019-02-28T11:50:07.587Z,50.62
2019-02-28T11:51:04.407Z,45.00
2019-02-28T11:52:04.392Z,45.00
2019-02-28T11:53:05.891Z,45.00
2019-02-28T11:54:04.371Z,45.00
2019-02-28T11:55:04.364Z,45.00
2019-02-28T11:56:04.354Z,45.00
2019-02-28T11:57:06.739Z,45.00
2019-02-28T11:58:04.330Z,45.00
2019-02-28T11:59:04.319Z,45.00
2019-02-28T12:00:04.662Z,39.37
2019-02-28T12:01:04.303Z,39.37
2019-02-28T12:02:04.294Z,39.37
2019-02-28T12:03:05.574Z,39.37
2019-02-28T12:04:04.414Z,33.75
2019-02-28T12:05:04.259Z,33.75
2019-02-28T12:06:04.246Z,33.75
2019-02-28T12:07:04.235Z,33.75
2019-02-28T12:08:09.019Z,33.75
2019-02-28T12:09:05.316Z,33.75
2019-02-28T12:10:04.204Z,33.75
2019-02-28T12:11:04.192Z,33.75
2019-02-28T12:12:04.187Z,39.37
2019-02-28T12:13:04.175Z,39.37
2019-02-28T12:14:06.210Z,39.37
2019-02-28T12:15:06.104Z,39.37
2019-02-28T12:16:04.146Z,39.37
2019-02-28T12:17:04.129Z,39.37
2019-02-28T12:18:04.920Z,39.37
2019-02-28T12:19:04.113Z,39.37
2019-02-28T12:20:04.103Z,33.75
2019-02-28T12:21:04.996Z,33.75
2019-02-28T12:22:04.082Z,33.75
2019-02-28T12:23:04.069Z,28.12
2019-02-28T12:24:04.060Z,28.12
2019-02-28T12:25:04.538Z,22.50
2019-02-28T12:26:04.038Z,22.50
2019-02-28T12:27:04.184Z,22.50
2019-02-28T12:28:06.521Z,22.50
2019-02-28T12:29:04.006Z,22.50
2019-02-28T12:30:03.998Z,22.50
2019-02-28T12:31:03.986Z,16.87
2019-02-28T12:32:03.977Z,16.87
2019-02-28T12:33:03.964Z,16.87
2019-02-28T12:34:03.960Z,16.87
2019-02-28T12:35:03.946Z,16.87
2019-02-28T12:36:03.930Z,16.87
2019-02-28T12:37:03.923Z,16.87
2019-02-28T12:38:03.915Z,16.87
2019-02-28T12:39:03.908Z,16.87
2019-02-28T12:40:03.894Z,16.87
2019-02-28T12:41:03.879Z,16.87
2019-02-28T12:42:03.871Z,22.50
2019-02-28T12:43:05.366Z,22.50
2019-02-28T12:44:03.849Z,22.50
2019-02-28T12:45:03.839Z,22.50
2019-02-28T12:46:03.826Z,22.50
2019-02-28T12:47:06.447Z,16.87
2019-02-28T12:48:03.804Z,16.87
2019-02-28T12:49:03.793Z,16.87
2019-02-28T12:50:03.782Z,16.87
2019-02-28T12:51:05.334Z,16.87
2019-02-28T12:52:03.772Z,16.87
2019-02-28T12:53:03.752Z,16.87
2019-02-28T12:54:03.737Z,16.87
2019-02-28T12:55:04.780Z,11.25
2019-02-28T12:56:03.715Z,11.25
2019-02-28T12:57:03.705Z,11.25
2019-02-28T12:58:03.696Z,11.25
2019-02-28T12:59:03.689Z,11.25
2019-02-28T13:00:03.679Z,5.62
2019-02-28T13:01:04.066Z,5.62
2019-02-28T13:02:07.164Z,5.62
2019-02-28T13:03:03.642Z,5.62
2019-02-28T13:04:03.631Z,5.62
2019-02-28T13:05:03.626Z,5.62
2019-02-28T13:06:03.608Z,5.62
2019-02-28T13:07:03.600Z,5.62
2019-02-28T13:08:05.730Z,5.62
2019-02-28T13:09:03.677Z,0.00
2019-02-28T13:10:04.086Z,0.00
2019-02-28T13:11:04.698Z,0.00
2019-02-28T13:12:03.546Z,0.00
2019-02-28T13:13:07.034Z,0.00
2019-02-28T13:14:06.152Z,0.00
2019-02-28T13:15:03.517Z,0.00
2019-02-28T13:16:03.502Z,0.00
2019-02-28T13:17:03.491Z,0.00
2019-02-28T13:18:07.176Z,0.00
2019-02-28T13:19:03.472Z,0.00
2019-02-28T13:20:03.466Z,0.00
2019-02-28T13:21:06.272Z,0.00
2019-02-28T13:22:04.555Z,0.00
2019-02-28T13:23:03.426Z,0.00
2019-02-28T13:24:05.984Z,0.00
2019-02-28T13:25:04.508Z,0.00
2019-02-28T13:26:03.403Z,0.00
2019-02-28T13:27:05.577Z,0.00
2019-02-28T13:28:04.481Z,0.00
2019-02-28T13:29:03.364Z,0.00
2019-02-28T13:30:05.392Z,0.00
2019-02-28T13:32:03.328Z,0.00
2019-02-28T13:33:03.321Z,0.00
2019-02-28T14:36:02.647Z,0.00
2019-02-28T14:37:02.749Z,0.00
2019-02-28T14:38:02.610Z,0.00
2019-02-28T14:39:04.724Z,0.00
2019-02-28T14:40:02.608Z,0.00
2019-02-28T14:41:02.532Z,0.00
2019-02-28T14:42:03.090Z,0.00
2019-02-28T14:43:02.828Z,0.00
2019-02-28T15:11:02.183Z,0.00
2019-02-28T15:12:02.270Z,0.00
2019-02-28T15:23:02.059Z,0.00
2019-02-28T15:25:02.047Z,0.00
2019-02-28T15:26:02.120Z,0.00
2019-02-28T15:30:01.980Z,0.00
2019-02-28T15:31:02.061Z,0.00
2019-02-28T15:50:01.864Z,0.00
2019-02-28T15:51:03.425Z,0.00
2019-02-28T18:26:00.204Z,0.00
2019-02-28T19:24:59.581Z,0.00
2019-02-28T19:25:59.569Z,0.00
2019-02-28T19:26:59.466Z,0.00
2019-02-28T19:37:59.443Z,0.00
2019-02-28T19:38:59.432Z,0.00
2019-02-28T19:39:59.324Z,0.00
2019-02-28T19:40:59.409Z,0.00
2019-02-28T19:41:59.306Z,0.00
2019-02-28T19:42:59.315Z,0.00
2019-02-28T19:43:59.378Z,0.00
